createdAt,value
2023-04-23T00:00:48.649Z,10.60
2023-04-23T00:03:37.485Z,10.30
2023-04-23T00:06:08.091Z,10.70
2023-04-23T00:08:35.929Z,10.70
2023-04-23T00:11:04.999Z,10.80
2023-04-23T00:13:33.344Z,10.60
2023-04-23T00:16:01.350Z,10.20
2023-04-23T00:18:29.677Z,10.50
2023-04-23T00:20:57.386Z,10.60
2023-04-23T00:23:25.215Z,11.00
2023-04-23T00:25:52.845Z,10.80
2023-04-23T00:28:22.224Z,11.30
2023-04-23T00:30:50.129Z,11.00
2023-04-23T00:33:18.157Z,11.90
2023-04-23T00:35:46.013Z,11.30
2023-04-23T00:38:13.626Z,11.00
2023-04-23T00:40:41.398Z,10.80
2023-04-23T00:43:09.846Z,12.40
2023-04-23T00:45:37.938Z,11.90
2023-04-23T00:48:05.906Z,11.90
2023-04-23T00:50:33.550Z,11.40
2023-04-23T00:53:01.237Z,12.10
2023-04-23T00:55:29.291Z,13.10
2023-04-23T00:57:57.073Z,11.80
2023-04-23T01:00:24.822Z,11.40
2023-04-23T01:02:53.160Z,12.10
2023-04-23T01:05:22.213Z,11.00
2023-04-23T01:07:50.079Z,10.80
2023-04-23T01:10:17.737Z,10.40
2023-04-23T01:12:46.895Z,11.00
2023-04-23T01:15:14.585Z,10.70
2023-04-23T01:17:43.229Z,10.00
2023-04-23T01:20:11.396Z,10.50
2023-04-23T01:22:39.012Z,10.90
2023-04-23T01:25:08.263Z,9.80
2023-04-23T01:27:36.225Z,9.90
2023-04-23T01:30:05.840Z,10.10
2023-04-23T01:32:35.505Z,10.50
2023-04-23T01:35:04.839Z,10.10
2023-04-23T01:37:32.922Z,10.90
2023-04-23T01:40:01.136Z,10.60
2023-04-23T01:42:28.869Z,10.80
2023-04-23T01:44:56.467Z,11.10
2023-04-23T01:47:24.272Z,11.00
2023-04-23T01:49:52.048Z,10.90
2023-04-23T01:52:19.663Z,10.30
2023-04-23T01:54:48.181Z,11.30
2023-04-23T01:57:15.872Z,11.60
2023-04-23T01:59:44.031Z,11.10
2023-04-23T02:02:13.920Z,11.80
2023-04-23T02:04:45.040Z,12.00
2023-04-23T02:07:13.101Z,12.40
2023-04-23T02:09:40.834Z,12.20
2023-04-23T02:12:08.484Z,11.90
2023-04-23T02:14:36.156Z,11.70
2023-04-23T02:17:03.851Z,11.30
2023-04-23T02:19:34.522Z,12.20
2023-04-23T02:22:02.208Z,12.10
2023-04-23T02:24:30.006Z,12.60
2023-04-23T02:26:58.014Z,12.00
2023-04-23T02:29:25.975Z,11.20
2023-04-23T02:31:53.829Z,11.60
2023-04-23T02:34:21.438Z,12.20
2023-04-23T02:36:49.064Z,12.90
2023-04-23T02:39:16.672Z,11.90
2023-04-23T02:41:44.289Z,12.50
2023-04-23T02:44:12.033Z,12.20
2023-04-23T02:46:39.658Z,12.30
2023-04-23T02:49:07.330Z,12.40
2023-04-23T02:51:34.991Z,12.10
2023-04-23T02:54:04.137Z,12.60
2023-04-23T02:56:32.066Z,12.20
2023-04-23T02:59:01.459Z,12.70
2023-04-23T03:01:29.448Z,13.70
2023-04-23T03:03:57.981Z,13.10
2023-04-23T03:06:25.683Z,12.60
2023-04-23T03:08:53.295Z,13.30
2023-04-23T03:11:22.531Z,13.60
2023-04-23T03:13:50.591Z,13.60
2023-04-23T03:16:20.072Z,14.00
2023-04-23T03:18:48.129Z,13.90
2023-04-23T03:21:15.850Z,12.90
2023-04-23T03:23:43.601Z,13.40
2023-04-23T03:26:11.228Z,14.00
2023-04-23T03:28:38.881Z,13.80
2023-04-23T03:31:06.649Z,13.20
2023-04-23T03:33:34.805Z,13.90
2023-04-23T03:36:02.777Z,14.30
2023-04-23T03:38:32.108Z,13.90
2023-04-23T03:41:00.480Z,14.10
2023-04-23T03:43:28.152Z,14.80
2023-04-23T03:46:04.795Z,14.40
2023-04-23T03:48:35.960Z,14.00
2023-04-23T03:51:08.306Z,14.50
2023-04-23T03:53:40.573Z,14.60
2023-04-23T03:56:27.214Z,13.80
2023-04-23T03:59:06.142Z,13.70
2023-04-23T04:01:36.365Z,13.80
2023-04-23T04:04:04.360Z,13.60
2023-04-23T04:06:33.592Z,13.60
2023-04-23T04:09:01.255Z,13.20
2023-04-23T04:11:29.849Z,13.20
2023-04-23T04:13:57.444Z,14.30
2023-04-23T04:16:25.122Z,13.50
2023-04-23T04:18:55.146Z,13.50
2023-04-23T04:21:24.055Z,12.90
2023-04-23T04:23:51.629Z,13.70
2023-04-23T04:26:19.253Z,13.10
2023-04-23T04:28:46.898Z,12.70
2023-04-23T04:31:16.136Z,12.50
2023-04-23T04:33:46.346Z,11.90
2023-04-23T04:36:14.498Z,13.60
2023-04-23T04:38:42.244Z,12.20
2023-04-23T04:41:11.492Z,11.70
2023-04-23T04:43:40.536Z,12.10
2023-04-23T04:46:11.733Z,12.60
2023-04-23T04:48:39.357Z,12.00
2023-04-23T04:51:07.288Z,12.00
2023-04-23T04:53:36.150Z,12.40
2023-04-23T04:56:04.059Z,12.00
2023-04-23T04:58:31.818Z,12.00
2023-04-23T05:00:59.691Z,12.70
2023-04-23T05:03:27.784Z,12.10
2023-04-23T05:05:56.455Z,11.50
2023-04-23T05:08:24.975Z,12.20
2023-04-23T05:10:54.253Z,11.70
2023-04-23T05:13:22.329Z,11.80
2023-04-23T05:15:50.003Z,12.00
2023-04-23T05:18:17.599Z,11.80
2023-04-23T05:20:45.303Z,12.00
2023-04-23T05:23:12.886Z,11.90
2023-04-23T05:25:41.101Z,11.70
2023-04-23T05:28:08.745Z,11.70
2023-04-23T05:30:36.425Z,11.80
2023-04-23T05:33:04.216Z,11.90
2023-04-23T05:35:31.989Z,12.00
2023-04-23T05:37:59.996Z,11.40
2023-04-23T05:40:27.613Z,12.10
2023-04-23T05:42:55.354Z,11.40
2023-04-23T05:45:23.036Z,11.60
2023-04-23T05:47:51.669Z,12.40
2023-04-23T05:50:21.949Z,12.60
2023-04-23T05:52:49.572Z,11.70
2023-04-23T05:55:18.350Z,12.00
2023-04-23T05:57:46.521Z,11.50
2023-04-23T06:00:14.388Z,12.60
2023-04-23T06:02:42.703Z,10.60
2023-04-23T06:05:11.107Z,11.50
2023-04-23T06:07:39.638Z,11.60
2023-04-23T06:10:08.047Z,11.40
2023-04-23T06:12:39.105Z,11.30
2023-04-23T06:15:08.287Z,10.30
2023-04-23T06:17:36.548Z,10.80
2023-04-23T06:20:05.255Z,10.70
2023-04-23T06:22:33.200Z,10.90
2023-04-23T06:25:00.809Z,10.90
2023-04-23T06:27:29.040Z,10.10
2023-04-23T06:30:00.952Z,10.60
2023-04-23T06:32:28.743Z,10.40
2023-04-23T06:35:01.344Z,10.60
2023-04-23T06:37:31.790Z,10.30
2023-04-23T06:39:59.588Z,10.20
2023-04-23T06:42:27.469Z,10.20
2023-04-23T06:45:08.573Z,10.60
2023-04-23T06:47:36.267Z,10.50
2023-04-23T06:50:05.905Z,9.80
2023-04-23T06:52:33.513Z,10.50
2023-04-23T06:55:01.113Z,10.00
2023-04-23T06:57:29.075Z,10.30
2023-04-23T06:59:56.714Z,11.30
2023-04-23T07:02:26.932Z,11.00
2023-04-23T07:04:55.082Z,11.10
2023-04-23T07:07:22.984Z,11.00
2023-04-23T07:09:50.907Z,10.50
2023-04-23T07:12:18.603Z,10.80
2023-04-23T07:14:46.273Z,11.30
2023-04-23T07:17:13.893Z,10.90
2023-04-23T07:19:42.427Z,10.80
2023-04-23T07:22:10.202Z,11.40
2023-04-23T07:24:37.790Z,10.70
2023-04-23T07:27:06.290Z,10.40
2023-04-23T07:29:34.073Z,11.30
2023-04-23T07:32:01.694Z,10.40
2023-04-23T07:34:29.277Z,10.70
2023-04-23T07:36:57.382Z,10.70
2023-04-23T07:39:25.034Z,11.40
2023-04-23T07:41:52.627Z,10.40
2023-04-23T07:44:20.254Z,10.90
2023-04-23T07:46:47.912Z,11.50
2023-04-23T07:49:15.496Z,11.00
2023-04-23T07:51:43.126Z,10.80
2023-04-23T07:54:11.841Z,10.60
2023-04-23T07:56:40.087Z,9.90
2023-04-23T07:59:09.861Z,9.70
2023-04-23T08:01:37.533Z,10.40
2023-04-23T08:04:05.425Z,9.40
2023-04-23T08:06:35.539Z,10.70
2023-04-23T08:09:06.653Z,10.20
2023-04-23T08:11:34.378Z,10.60
2023-04-23T08:14:02.037Z,11.00
2023-04-23T08:16:31.068Z,10.00
2023-04-23T08:19:05.636Z,9.80
2023-04-23T08:21:35.029Z,10.50
2023-04-23T08:24:05.473Z,11.00
2023-04-23T08:26:33.277Z,10.60
2023-04-23T08:29:00.974Z,11.00
2023-04-23T08:31:28.833Z,9.90
2023-04-23T08:33:57.011Z,10.50
2023-04-23T08:36:25.584Z,10.10
2023-04-23T08:38:53.362Z,9.70
2023-04-23T08:41:24.248Z,10.40
2023-04-23T08:43:58.001Z,10.70
2023-04-23T08:46:26.904Z,10.90
2023-04-23T08:48:56.911Z,9.70
2023-04-23T08:51:26.681Z,9.30
2023-04-23T08:53:56.809Z,9.60
2023-04-23T08:56:25.368Z,10.30
2023-04-23T08:58:55.083Z,10.00
2023-04-23T09:01:24.309Z,9.80
2023-04-23T09:03:53.439Z,8.90
2023-04-23T09:06:21.722Z,9.80
2023-04-23T09:08:51.397Z,9.20
2023-04-23T09:11:19.278Z,10.20
2023-04-23T09:13:46.922Z,10.70
2023-04-23T09:16:14.546Z,9.50
2023-04-23T09:18:42.291Z,9.70
2023-04-23T09:21:10.711Z,8.70
2023-04-23T09:23:41.375Z,8.70
2023-04-23T09:26:09.050Z,8.60
2023-04-23T09:28:37.845Z,8.80
2023-04-23T09:31:06.362Z,9.30
2023-04-23T09:33:37.067Z,9.40
2023-04-23T09:36:13.990Z,9.10
2023-04-23T09:38:41.602Z,9.00
2023-04-23T09:41:28.730Z,8.90
2023-04-23T09:43:57.119Z,8.10
2023-04-23T09:46:42.262Z,8.10
2023-04-23T09:49:12.272Z,8.50
2023-04-23T09:51:49.822Z,8.00
2023-04-23T09:54:26.013Z,8.00
2023-04-23T09:56:57.593Z,7.80
2023-04-23T09:59:46.067Z,8.10
2023-04-23T10:02:15.315Z,8.20
2023-04-23T10:04:43.524Z,7.90
2023-04-23T10:07:19.122Z,8.30
2023-04-23T10:09:48.358Z,8.90
2023-04-23T10:12:39.392Z,7.80
2023-04-23T10:15:06.258Z,7.90
2023-04-23T10:17:36.666Z,8.00
2023-04-23T10:20:06.960Z,7.90
2023-04-23T10:22:35.831Z,6.90
2023-04-23T10:25:10.521Z,7.10
2023-04-23T10:27:53.118Z,8.00
2023-04-23T10:30:23.147Z,7.40
2023-04-23T10:32:51.467Z,8.20
2023-04-23T10:35:19.468Z,6.70
2023-04-23T10:37:48.261Z,6.80
2023-04-23T10:40:19.708Z,6.70
2023-04-23T10:42:47.489Z,7.30
2023-04-23T10:45:24.165Z,6.70
2023-04-23T10:47:57.249Z,7.30
2023-04-23T10:50:27.004Z,7.00
2023-04-23T10:52:57.130Z,7.00
2023-04-23T10:55:27.163Z,7.20
2023-04-23T10:58:01.568Z,7.00
2023-04-23T11:00:50.952Z,7.60
2023-04-23T11:03:32.138Z,7.30
2023-04-23T11:06:04.567Z,7.10
2023-04-23T11:08:33.415Z,6.70
2023-04-23T11:11:02.579Z,7.10
2023-04-23T11:13:30.788Z,6.20
2023-04-23T11:16:21.486Z,6.60
2023-04-23T11:19:04.855Z,6.70
2023-04-23T11:22:03.925Z,7.40
2023-04-23T11:24:42.883Z,6.60
2023-04-23T11:27:18.731Z,6.70
2023-04-23T11:29:47.106Z,6.80
2023-04-23T11:32:17.224Z,6.90
2023-04-23T11:34:46.627Z,6.90
2023-04-23T11:37:15.552Z,6.40
2023-04-23T11:39:44.986Z,6.30
2023-04-23T11:42:16.389Z,6.00
2023-04-23T11:44:45.343Z,6.30
2023-04-23T11:47:14.450Z,6.70
2023-04-23T11:49:43.915Z,6.00
2023-04-23T11:52:12.745Z,5.80
2023-04-23T11:54:41.808Z,5.70
2023-04-23T11:57:10.438Z,5.50
2023-04-23T11:59:38.356Z,6.40
2023-04-23T12:02:06.191Z,6.20
2023-04-23T12:04:33.968Z,6.20
2023-04-23T12:07:04.326Z,6.40
2023-04-23T12:09:38.355Z,6.60
2023-04-23T12:12:06.203Z,6.40
2023-04-23T12:14:33.825Z,6.00
2023-04-23T12:17:09.975Z,5.90
2023-04-23T12:19:38.365Z,5.90
2023-04-23T12:22:08.380Z,5.50
2023-04-23T12:24:47.207Z,5.40
2023-04-23T12:27:16.839Z,5.50
2023-04-23T12:29:47.424Z,6.40
2023-04-23T12:32:15.703Z,5.60
2023-04-23T12:34:54.214Z,5.20
2023-04-23T12:37:26.783Z,4.80
2023-04-23T12:39:56.709Z,4.80
2023-04-23T12:42:25.756Z,5.10
2023-04-23T12:44:55.699Z,5.00
2023-04-23T12:47:23.671Z,4.70
2023-04-23T12:49:55.648Z,5.60
2023-04-23T12:52:23.498Z,4.80
2023-04-23T12:54:56.057Z,5.60
2023-04-23T12:57:24.558Z,5.10
2023-04-23T12:59:52.271Z,4.80
2023-04-23T13:02:20.085Z,4.50
2023-04-23T13:04:47.821Z,4.50
2023-04-23T13:07:15.505Z,4.60
2023-04-23T13:09:43.490Z,4.50
2023-04-23T13:12:11.830Z,4.90
2023-04-23T13:14:39.415Z,4.70
2023-04-23T13:17:07.200Z,4.90
2023-04-23T13:19:35.461Z,4.90
2023-04-23T13:22:04.534Z,4.60
2023-04-23T13:24:32.774Z,4.20
2023-04-23T13:27:01.817Z,4.60
2023-04-23T13:29:29.636Z,4.50
2023-04-23T13:31:58.307Z,4.60
2023-04-23T13:34:26.082Z,4.80
2023-04-23T13:36:53.818Z,4.60
2023-04-23T13:39:21.535Z,4.80
2023-04-23T13:41:59.135Z,4.40
2023-04-23T13:44:34.207Z,4.60
2023-04-23T13:47:01.818Z,4.60
2023-04-23T13:49:29.448Z,4.80
2023-04-23T13:52:04.376Z,4.40
2023-04-23T13:54:32.698Z,4.40
2023-04-23T13:57:00.978Z,4.40
2023-04-23T13:59:28.649Z,4.30
2023-04-23T14:01:56.277Z,4.60
2023-04-23T14:04:24.273Z,4.60
2023-04-23T14:06:52.355Z,4.30
2023-04-23T14:09:22.284Z,4.40
2023-04-23T14:11:50.050Z,4.80
2023-04-23T14:14:18.413Z,4.80
2023-04-23T14:16:46.020Z,4.60
2023-04-23T14:19:13.717Z,5.00
2023-04-23T14:21:41.785Z,4.90
2023-04-23T14:24:17.635Z,5.20
2023-04-23T14:26:49.404Z,4.70
2023-04-23T14:29:38.552Z,5.20
2023-04-23T14:32:06.519Z,5.30
2023-04-23T14:34:35.871Z,4.50
2023-04-23T14:37:04.073Z,4.90
2023-04-23T14:39:32.037Z,4.80
2023-04-23T14:41:59.713Z,4.40
2023-04-23T14:44:27.325Z,4.60
2023-04-23T14:46:55.496Z,4.80
2023-04-23T14:49:23.871Z,4.50
2023-04-23T14:51:55.789Z,4.30
2023-04-23T14:54:23.954Z,4.50
2023-04-23T14:56:51.941Z,4.20
2023-04-23T14:59:20.612Z,4.50
2023-04-23T15:01:48.428Z,4.80
2023-04-23T15:04:16.518Z,4.50
2023-04-23T15:06:44.282Z,5.30
2023-04-23T15:09:11.917Z,4.80
2023-04-23T15:11:41.662Z,5.00
2023-04-23T15:14:25.854Z,4.90
2023-04-23T15:16:53.546Z,4.40
2023-04-23T15:19:21.424Z,4.80
2023-04-23T15:21:49.100Z,4.30
2023-04-23T15:24:17.189Z,4.60
2023-04-23T15:26:45.920Z,6.60
2023-04-23T15:29:14.124Z,5.70
2023-04-23T15:31:42.193Z,5.60
2023-04-23T15:34:11.558Z,4.30
2023-04-23T15:36:39.295Z,4.60
2023-04-23T15:39:08.113Z,4.70
2023-04-23T15:41:39.518Z,4.70
2023-04-23T15:44:11.817Z,4.90
2023-04-23T15:46:40.006Z,5.00
2023-04-23T15:49:07.797Z,5.00
2023-04-23T15:51:36.544Z,5.10
2023-04-23T15:54:08.226Z,5.40
2023-04-23T15:56:37.205Z,4.50
2023-04-23T15:59:05.996Z,4.80
2023-04-23T16:01:33.823Z,4.70
2023-04-23T16:06:32.305Z,4.40
2023-04-23T16:09:01.284Z,4.60
2023-04-23T16:11:28.984Z,4.80
2023-04-23T16:13:57.071Z,4.20
2023-04-23T16:16:25.010Z,4.00
2023-04-23T16:18:53.303Z,4.10
2023-04-23T16:21:21.184Z,3.60
2023-04-23T16:23:49.042Z,3.70
2023-04-23T16:26:16.768Z,4.30
2023-04-23T16:28:45.774Z,3.80
2023-04-23T16:31:13.572Z,3.90
2023-04-23T16:33:41.656Z,3.50
2023-04-23T16:36:12.980Z,4.40
2023-04-23T16:38:40.940Z,4.30
2023-04-23T16:41:08.562Z,4.20
2023-04-23T16:43:36.786Z,3.90
2023-04-23T16:46:04.482Z,4.10
2023-04-23T16:48:32.694Z,3.90
2023-04-23T16:51:00.529Z,4.50
2023-04-23T16:53:28.132Z,4.70
2023-04-23T16:55:55.957Z,4.20
2023-04-23T16:58:23.641Z,4.40
2023-04-23T17:00:51.231Z,4.50
2023-04-23T17:03:18.903Z,4.40
2023-04-23T17:05:50.662Z,4.30
2023-04-23T17:08:18.356Z,4.50
2023-04-23T17:10:46.065Z,4.30
2023-04-23T17:13:13.673Z,5.60
2023-04-23T17:15:41.334Z,6.50
2023-04-23T17:18:10.557Z,5.90
2023-04-23T17:20:38.896Z,5.30
2023-04-23T17:23:06.505Z,5.70
2023-04-23T17:25:34.144Z,4.70
2023-04-23T17:28:01.760Z,5.80
2023-04-23T17:30:29.810Z,8.10
2023-04-23T17:32:57.459Z,5.80
2023-04-23T17:35:25.278Z,5.20
2023-04-23T17:37:52.953Z,7.00
2023-04-23T17:40:20.979Z,5.60
2023-04-23T17:42:49.386Z,5.90
2023-04-23T17:45:18.566Z,8.10
2023-04-23T17:47:46.259Z,11.40
2023-04-23T17:50:13.893Z,7.80
2023-04-23T17:52:41.880Z,5.60
2023-04-23T17:55:09.783Z,5.80
2023-04-23T17:57:37.531Z,6.30
2023-04-23T18:00:13.092Z,7.00
2023-04-23T18:02:41.388Z,8.60
2023-04-23T18:05:11.457Z,12.70
2023-04-23T18:07:39.988Z,14.70
2023-04-23T18:10:08.699Z,17.40
2023-04-23T18:12:36.529Z,12.80
2023-04-23T18:15:05.012Z,14.90
2023-04-23T18:17:32.652Z,12.30
2023-04-23T18:20:01.061Z,11.90
2023-04-23T18:22:29.070Z,14.40
2023-04-23T18:24:56.713Z,14.60
2023-04-23T18:27:25.391Z,9.60
2023-04-23T18:29:53.338Z,9.30
2023-04-23T18:32:33.693Z,8.60
2023-04-23T18:35:02.536Z,9.50
2023-04-23T18:37:39.023Z,9.20
2023-04-23T18:40:07.335Z,8.90
2023-04-23T18:42:34.980Z,11.40
2023-04-23T18:45:05.513Z,11.20
2023-04-23T18:47:46.570Z,12.00
2023-04-23T18:50:31.464Z,10.90
2023-04-23T18:52:59.098Z,9.50
2023-04-23T18:55:26.683Z,9.60
2023-04-23T18:57:56.015Z,9.50
2023-04-23T19:00:23.715Z,9.00
2023-04-23T19:02:52.237Z,10.80
2023-04-23T19:05:20.102Z,10.20
2023-04-23T19:07:48.441Z,10.20
2023-04-23T19:10:16.708Z,9.50
2023-04-23T19:12:44.755Z,9.10
2023-04-23T19:15:14.264Z,11.80
2023-04-23T19:17:41.992Z,11.20
2023-04-23T19:20:11.550Z,11.40
2023-04-23T19:22:41.370Z,12.00
2023-04-23T19:25:10.126Z,11.10
2023-04-23T19:27:37.764Z,9.40
2023-04-23T19:30:06.968Z,9.80
2023-04-23T19:32:34.718Z,10.00
2023-04-23T19:35:04.497Z,9.10
2023-04-23T19:37:32.684Z,22.60
2023-04-23T19:40:00.763Z,32.00
2023-04-23T19:42:30.024Z,24.90
2023-04-23T19:44:57.648Z,21.80
2023-04-23T19:47:25.368Z,17.90
2023-04-23T19:49:53.016Z,18.30
2023-04-23T19:52:23.850Z,16.60
2023-04-23T19:54:51.657Z,17.10
2023-04-23T19:57:19.814Z,15.40
2023-04-23T19:59:47.781Z,15.20
2023-04-23T20:02:18.884Z,16.10
2023-04-23T20:04:47.292Z,15.40
2023-04-23T20:07:15.427Z,14.90
2023-04-23T20:09:43.521Z,14.40
2023-04-23T20:12:12.971Z,14.50
2023-04-23T20:14:40.864Z,15.50
2023-04-23T20:17:09.464Z,14.40
2023-04-23T20:19:38.367Z,15.50
2023-04-23T20:22:06.843Z,16.60
2023-04-23T20:24:35.691Z,15.10
2023-04-23T20:27:03.436Z,14.30
2023-04-23T20:29:31.195Z,14.20
2023-04-23T20:31:58.906Z,12.90
2023-04-23T20:34:27.055Z,13.60
2023-04-23T20:36:54.727Z,13.00
2023-04-23T20:39:24.337Z,13.20
2023-04-23T20:41:52.497Z,13.60
2023-04-23T20:44:23.822Z,11.30
2023-04-23T20:46:52.118Z,11.50
2023-04-23T20:49:20.054Z,13.80
2023-04-23T20:51:47.721Z,14.40
2023-04-23T20:54:15.513Z,17.20
2023-04-23T20:56:43.288Z,16.50
2023-04-23T20:59:10.880Z,13.80
2023-04-23T21:01:38.520Z,14.50
2023-04-23T21:04:06.785Z,13.40
2023-04-23T21:06:34.863Z,14.10
2023-04-23T21:09:02.498Z,12.70
2023-04-23T21:11:31.461Z,11.90
2023-04-23T21:14:00.867Z,11.80
2023-04-23T21:16:28.907Z,12.40
2023-04-23T21:18:56.540Z,11.30
2023-04-23T21:21:27.852Z,10.00
2023-04-23T21:23:56.497Z,10.70
2023-04-23T21:26:24.286Z,11.10
2023-04-23T21:28:51.912Z,10.20
2023-04-23T21:31:41.079Z,10.00
2023-04-23T21:34:09.249Z,9.90
2023-04-23T21:36:36.944Z,10.10
2023-04-23T21:39:04.743Z,9.70
2023-04-23T21:41:32.585Z,9.80
2023-04-23T21:44:00.353Z,12.80
2023-04-23T21:46:28.249Z,11.00
2023-04-23T21:48:56.509Z,9.30
2023-04-23T21:51:28.043Z,8.80
2023-04-23T21:53:55.720Z,10.70
2023-04-23T21:56:23.357Z,9.70
2023-04-23T21:58:50.961Z,9.30
2023-04-23T22:01:18.626Z,8.50
2023-04-23T22:03:47.136Z,9.30
2023-04-23T22:06:15.902Z,10.30
2023-04-23T22:08:44.761Z,10.60
2023-04-23T22:11:13.787Z,20.90
2023-04-23T22:13:41.580Z,12.60
2023-04-23T22:16:24.364Z,9.70
2023-04-23T22:18:56.399Z,12.50
2023-04-23T22:21:24.079Z,11.50
2023-04-23T22:23:52.105Z,13.50
2023-04-23T22:26:19.722Z,10.30
2023-04-23T22:28:47.459Z,9.50
2023-04-23T22:31:15.885Z,9.30
2023-04-23T22:33:43.783Z,9.30
2023-04-23T22:36:11.629Z,9.00
2023-04-23T22:38:39.232Z,9.60
2023-04-23T22:41:07.590Z,10.00
2023-04-23T22:43:35.210Z,9.90
2023-04-23T22:46:02.891Z,9.40
2023-04-23T22:48:30.916Z,9.60
2023-04-23T22:50:59.238Z,9.20
2023-04-23T22:53:27.002Z,12.40
2023-04-23T22:55:54.659Z,11.40
2023-04-23T22:58:22.237Z,11.20
2023-04-23T23:00:50.438Z,10.60
2023-04-23T23:03:18.136Z,10.50
2023-04-23T23:05:45.896Z,11.10
2023-04-23T23:08:13.623Z,10.30
2023-04-23T23:10:41.364Z,11.00
2023-04-23T23:13:09.237Z,11.50
2023-04-23T23:15:37.512Z,11.50
2023-04-23T23:18:06.184Z,11.50
2023-04-23T23:20:33.870Z,10.90
2023-04-23T23:23:01.506Z,11.70
2023-04-23T23:25:29.084Z,11.40
2023-04-23T23:27:56.714Z,11.70
2023-04-23T23:30:25.623Z,11.60
2023-04-23T23:32:53.341Z,11.20
2023-04-23T23:35:21.466Z,12.00
2023-04-23T23:37:49.089Z,12.00
2023-04-23T23:40:16.798Z,11.30
2023-04-23T23:42:44.392Z,13.00
2023-04-23T23:45:12.015Z,13.00
2023-04-23T23:47:39.953Z,15.20
2023-04-23T23:50:08.444Z,18.70
2023-04-23T23:52:36.121Z,14.50
2023-04-23T23:55:04.528Z,12.10
2023-04-23T23:57:32.196Z,11.50
2023-04-23T23:59:59.846Z,12.60
